createdAt,value
2022-10-23T00:01:56.934Z,100695.38
2022-10-23T00:04:25.534Z,100694.56
2022-10-23T00:06:52.183Z,100692.06
2022-10-23T00:09:21.052Z,100684.78
2022-10-23T00:11:48.349Z,100673.19
2022-10-23T00:14:15.853Z,100663.94
2022-10-23T00:16:42.651Z,100660.59
2022-10-23T00:19:09.330Z,100657.78
2022-10-23T00:21:36.279Z,100657.47
2022-10-23T00:24:03.010Z,100656.94
2022-10-23T00:26:29.829Z,100653.34
2022-10-23T00:28:56.453Z,100650.84
2022-10-23T00:31:23.716Z,100651.66
2022-10-23T00:33:50.375Z,100652.81
2022-10-23T00:36:18.358Z,100655.63
2022-10-23T00:38:45.447Z,100652.81
2022-10-23T00:41:23.556Z,100653.13
2022-10-23T00:44:01.937Z,100647.03
2022-10-23T00:46:28.565Z,100642.22
2022-10-23T00:48:56.093Z,100636.59
2022-10-23T00:51:22.921Z,100639.41
2022-10-23T00:54:01.184Z,100631.28
2022-10-23T00:56:41.760Z,100626.50
2022-10-23T00:59:08.562Z,100626.50
2022-10-23T01:01:35.551Z,100620.84
2022-10-23T01:04:03.362Z,100621.69
2022-10-23T01:06:38.062Z,100612.72
2022-10-23T01:09:18.934Z,100619.19
2022-10-23T01:12:04.293Z,100624.81
2022-10-23T01:14:49.400Z,100616.38
2022-10-23T01:17:25.038Z,100614.41
2022-10-23T01:20:10.258Z,100600.66
2022-10-23T01:22:36.797Z,100602.63
2022-10-23T01:25:21.553Z,100596.69
2022-10-23T01:27:51.241Z,100590.22
2022-10-23T01:30:18.179Z,100585.75
2022-10-23T01:32:49.285Z,100569.22
2022-10-23T01:35:24.690Z,100580.47
2022-10-23T01:37:56.475Z,100567.84
2022-10-23T01:40:31.349Z,100575.81
2022-10-23T01:43:00.465Z,100562.59
2022-10-23T01:45:37.374Z,100560.09
2022-10-23T01:48:05.526Z,100555.28
2022-10-23T01:50:32.667Z,100545.19
2022-10-23T01:52:59.487Z,100528.63
2022-10-23T01:55:26.365Z,100527.81
2022-10-23T01:57:53.915Z,100525.31
2022-10-23T02:00:20.871Z,100534.25
2022-10-23T02:02:49.166Z,100518.88
2022-10-23T02:08:25.445Z,100488.22
2022-10-23T02:10:54.981Z,100497.50
2022-10-23T02:13:35.750Z,100500.31
2022-10-23T02:16:21.101Z,100487.41
2022-10-23T02:18:53.559Z,100489.41
2022-10-23T02:21:38.744Z,100485.78
2022-10-23T02:24:13.480Z,100485.78
2022-10-23T02:26:47.103Z,100482.44
2022-10-23T02:29:18.280Z,100476.00
2022-10-23T02:31:45.078Z,100473.19
2022-10-23T02:34:12.628Z,100469.53
2022-10-23T02:36:39.235Z,100477.13
2022-10-23T02:39:06.036Z,100465.09
2022-10-23T02:41:42.538Z,100457.44
2022-10-23T02:44:15.368Z,100447.03
2022-10-23T02:46:50.764Z,100439.78
2022-10-23T02:49:31.767Z,100429.97
2022-10-23T02:52:04.354Z,100432.47
2022-10-23T02:54:37.704Z,100443.22
2022-10-23T02:57:16.293Z,100428.00
2022-10-23T02:59:48.019Z,100425.50
2022-10-23T03:02:14.693Z,100423.53
2022-10-23T03:04:43.145Z,100411.78
2022-10-23T03:07:13.670Z,100405.34
2022-10-23T03:09:40.305Z,100380.84
2022-10-23T03:12:07.149Z,100373.56
2022-10-23T03:14:33.712Z,100369.91
2022-10-23T03:17:00.308Z,100356.69
2022-10-23T03:19:26.952Z,100348.56
2022-10-23T03:21:53.527Z,100340.97
2022-10-23T03:24:20.198Z,100352.22
2022-10-23T03:26:46.810Z,100347.41
2022-10-23T03:29:13.519Z,100338.16
2022-10-23T03:31:40.127Z,100338.16
2022-10-23T03:34:11.264Z,100327.22
2022-10-23T03:36:38.241Z,100308.34
2022-10-23T03:39:04.860Z,100305.56
2022-10-23T03:41:31.619Z,100302.75
2022-10-23T03:43:58.247Z,100299.09
2022-10-23T03:46:24.925Z,100296.28
2022-10-23T03:48:51.617Z,100293.81
2022-10-23T03:51:18.225Z,100308.34
2022-10-23T03:53:44.809Z,100301.09
2022-10-23T03:56:11.357Z,100295.78
2022-10-23T03:58:37.941Z,100282.56
2022-10-23T04:01:04.735Z,100278.06
2022-10-23T04:03:31.354Z,100268.81
2022-10-23T04:05:57.917Z,100268.81
2022-10-23T04:08:24.476Z,100259.88
2022-10-23T04:10:51.133Z,100262.34
2022-10-23T04:13:17.810Z,100248.63
2022-10-23T04:16:00.486Z,100255.41
2022-10-23T04:18:27.119Z,100235.72
2022-10-23T04:20:54.302Z,100241.34
2022-10-23T04:23:20.925Z,100245.00
2022-10-23T04:28:34.133Z,100223.66
2022-10-23T04:31:00.739Z,100212.41
2022-10-23T04:33:27.349Z,100212.41
2022-10-23T04:35:57.697Z,100207.09
2022-10-23T04:38:24.348Z,100191.38
2022-10-23T04:40:50.954Z,100184.97
2022-10-23T04:43:17.548Z,100184.13
2022-10-23T04:45:44.139Z,100168.09
2022-10-23T04:48:10.716Z,100178.97
2022-10-23T04:50:37.352Z,100167.72
2022-10-23T04:53:04.024Z,100162.47
2022-10-23T04:55:30.587Z,100171.69
2022-10-23T04:57:57.180Z,100165.28
2022-10-23T05:00:23.850Z,100151.22
2022-10-23T05:02:50.430Z,100159.66
2022-10-23T05:05:17.286Z,100149.56
2022-10-23T05:07:44.286Z,100145.09
2022-10-23T05:10:11.122Z,100141.44
2022-10-23T05:12:37.871Z,100141.44
2022-10-23T05:15:04.668Z,100136.66
2022-10-23T05:17:35.846Z,100132.69
2022-10-23T05:20:03.958Z,100133.84
2022-10-23T05:22:31.930Z,100116.13
2022-10-23T05:24:58.703Z,100112.50
2022-10-23T05:27:25.364Z,100090.81
2022-10-23T05:29:51.969Z,100101.25
2022-10-23T05:32:18.613Z,100103.22
2022-10-23T05:34:45.700Z,100092.81
2022-10-23T05:37:14.331Z,100090.34
2022-10-23T05:39:41.036Z,100095.63
2022-10-23T05:42:07.629Z,100095.97
2022-10-23T05:44:34.196Z,100083.91
2022-10-23T05:47:00.789Z,100090.34
2022-10-23T05:49:27.529Z,100078.59
2022-10-23T05:51:54.243Z,100077.44
2022-10-23T05:54:20.920Z,100092.34
2022-10-23T05:56:47.512Z,100093.50
2022-10-23T05:59:15.905Z,100107.56
2022-10-23T06:01:47.706Z,100123.59
2022-10-23T06:04:14.470Z,100128.38
2022-10-23T06:06:41.031Z,100128.38
2022-10-23T06:09:07.590Z,100128.38
2022-10-23T06:11:34.255Z,100127.56
2022-10-23T06:14:01.279Z,100124.75
2022-10-23T06:16:28.072Z,100125.91
2022-10-23T06:18:54.963Z,100132.34
2022-10-23T06:21:21.641Z,100118.31
2022-10-23T06:23:48.278Z,100117.47
2022-10-23T06:26:15.870Z,100125.91
2022-10-23T06:28:42.937Z,100131.88
2022-10-23T06:31:10.591Z,100139.97
2022-10-23T06:33:37.450Z,100140.78
2022-10-23T06:36:05.630Z,100128.25
2022-10-23T06:38:37.157Z,100122.63
2022-10-23T06:41:04.315Z,100113.34
2022-10-23T06:43:30.934Z,100098.81
2022-10-23T06:46:04.040Z,100100.81
2022-10-23T06:48:31.084Z,100091.19
2022-10-23T06:50:57.874Z,100084.75
2022-10-23T06:53:25.123Z,100079.63
2022-10-23T06:56:04.060Z,100082.44
2022-10-23T06:58:31.071Z,100060.25
2022-10-23T07:01:00.298Z,100058.28
2022-10-23T07:03:27.120Z,100051.81
2022-10-23T07:06:01.174Z,100051.00
2022-10-23T07:08:28.520Z,100057.81
2022-10-23T07:10:55.151Z,100063.44
2022-10-23T07:13:22.656Z,100065.41
2022-10-23T07:15:49.443Z,100072.19
2022-10-23T07:18:17.157Z,100078.66
2022-10-23T07:20:44.128Z,100085.94
2022-10-23T07:23:11.804Z,100075.84
2022-10-23T07:25:38.424Z,100075.84
2022-10-23T07:28:05.201Z,100068.56
2022-10-23T07:30:31.880Z,100057.31
2022-10-23T07:32:58.501Z,100054.50
2022-10-23T07:35:25.125Z,100055.00
2022-10-23T07:37:51.708Z,100053.34
2022-10-23T07:40:19.034Z,100044.09
2022-10-23T07:42:45.623Z,100044.91
2022-10-23T07:45:12.799Z,100042.94
2022-10-23T07:47:39.465Z,100039.28
2022-10-23T07:50:06.335Z,100027.53
2022-10-23T07:52:35.961Z,100019.47
2022-10-23T07:55:02.784Z,100018.28
2022-10-23T07:57:29.407Z,100014.66
2022-10-23T07:59:56.003Z,100023.91
2022-10-23T08:02:22.697Z,100031.53
2022-10-23T08:04:49.813Z,100037.97
2022-10-23T08:07:16.487Z,100038.78
2022-10-23T08:09:43.074Z,100037.97
2022-10-23T08:12:10.300Z,100034.81
2022-10-23T08:14:36.980Z,100042.44
2022-10-23T08:17:05.475Z,100042.44
2022-10-23T08:19:32.309Z,100042.78
2022-10-23T08:21:58.933Z,100026.72
2022-10-23T08:24:25.673Z,100027.53
2022-10-23T08:26:52.328Z,100031.53
2022-10-23T08:29:19.072Z,100032.69
2022-10-23T08:31:45.736Z,100034.69
2022-10-23T08:34:12.751Z,100035.50
2022-10-23T08:36:39.529Z,100022.94
2022-10-23T08:39:06.672Z,100018.13
2022-10-23T08:41:42.843Z,100018.50
2022-10-23T08:44:25.345Z,100002.78
2022-10-23T08:47:04.108Z,100001.13
2022-10-23T08:49:36.619Z,100005.94
2022-10-23T08:52:10.403Z,100000.63
2022-10-23T08:54:39.825Z,100009.91
2022-10-23T08:57:13.059Z,100009.06
2022-10-23T08:59:42.682Z,100009.06
2022-10-23T09:02:24.544Z,99999.00
2022-10-23T09:04:52.404Z,99995.00
2022-10-23T09:07:41.574Z,99986.94
2022-10-23T09:10:14.605Z,99984.94
2022-10-23T09:12:42.001Z,99992.56
2022-10-23T09:15:25.675Z,99993.72
2022-10-23T09:17:57.789Z,99990.06
2022-10-23T09:20:25.730Z,99978.50
2022-10-23T09:22:57.919Z,99976.53
2022-10-23T09:25:34.053Z,99984.44
2022-10-23T09:28:05.246Z,99980.81
2022-10-23T09:30:34.314Z,99966.28
2022-10-23T09:33:01.363Z,99985.16
2022-10-23T09:35:29.762Z,99993.56
2022-10-23T09:37:57.064Z,99990.91
2022-10-23T09:40:33.499Z,99968.13
2022-10-23T09:43:01.655Z,99944.31
2022-10-23T09:45:30.246Z,99938.25
2022-10-23T09:48:11.472Z,99926.16
2022-10-23T09:50:38.360Z,99949.31
2022-10-23T09:53:04.975Z,99932.81
2022-10-23T09:55:31.625Z,99931.16
2022-10-23T09:57:58.265Z,99932.44
2022-10-23T10:00:26.194Z,99920.38
2022-10-23T10:03:03.196Z,99891.47
2022-10-23T10:05:33.208Z,99890.66
2022-10-23T10:08:04.009Z,99904.22
2022-10-23T10:10:35.742Z,99890.50
2022-10-23T10:13:09.943Z,99915.78
2022-10-23T10:15:47.678Z,99913.78
2022-10-23T10:18:32.943Z,99907.34
2022-10-23T10:21:29.143Z,99905.72
2022-10-23T10:24:22.053Z,99925.41
2022-10-23T10:26:56.328Z,99914.16
2022-10-23T10:29:31.049Z,99912.84
2022-10-23T10:32:00.473Z,99915.66
2022-10-23T10:34:33.111Z,99913.66
2022-10-23T10:37:02.672Z,99927.25
2022-10-23T10:39:45.671Z,99929.69
2022-10-23T10:42:21.443Z,99922.78
2022-10-23T10:44:50.765Z,99926.88
2022-10-23T10:47:39.606Z,99931.03
2022-10-23T10:50:23.658Z,99922.22
2022-10-23T10:53:03.196Z,99925.22
2022-10-23T10:55:41.211Z,99922.19
2022-10-23T10:58:21.397Z,99915.22
2022-10-23T11:00:50.557Z,99895.66
2022-10-23T11:03:28.298Z,99889.84
2022-10-23T11:06:04.023Z,99879.94
2022-10-23T11:08:49.869Z,99880.06
2022-10-23T11:11:42.217Z,99875.41
2022-10-23T11:14:33.167Z,99864.28
2022-10-23T11:17:09.928Z,99864.91
2022-10-23T11:19:40.881Z,99875.63
2022-10-23T11:22:13.288Z,99879.22
2022-10-23T11:25:01.553Z,99880.63
2022-10-23T11:27:37.033Z,99868.84
2022-10-23T11:30:09.649Z,99870.59
2022-10-23T11:32:49.813Z,99872.19
2022-10-23T11:35:23.134Z,99872.75
2022-10-23T11:38:09.248Z,99874.91
2022-10-23T11:40:36.238Z,99864.38
2022-10-23T11:43:02.874Z,99866.28
2022-10-23T11:45:32.747Z,99854.44
2022-10-23T11:48:04.281Z,99853.53
2022-10-23T11:50:49.849Z,99839.22
2022-10-23T11:53:38.490Z,99837.00
2022-10-23T11:56:11.127Z,99826.22
2022-10-23T11:58:42.694Z,99829.16
2022-10-23T12:01:24.488Z,99827.66
2022-10-23T12:03:54.590Z,99824.13
2022-10-23T12:06:26.397Z,99809.31
2022-10-23T12:08:55.208Z,99802.53
2022-10-23T12:11:27.709Z,99794.91
2022-10-23T12:14:08.228Z,99798.66
2022-10-23T12:16:54.420Z,99800.31
2022-10-23T12:19:46.812Z,99803.56
2022-10-23T12:22:43.937Z,99792.31
2022-10-23T12:25:42.457Z,99786.31
2022-10-23T12:28:20.857Z,99779.53
2022-10-23T12:31:08.389Z,99765.09
2022-10-23T12:33:46.250Z,99760.25
2022-10-23T12:36:33.989Z,99761.06
2022-10-23T12:39:45.688Z,99752.63
2022-10-23T12:42:34.785Z,99745.81
2022-10-23T12:45:21.435Z,99736.19
2022-10-23T12:48:11.536Z,99729.75
2022-10-23T12:50:52.485Z,99726.09
2022-10-23T12:53:36.175Z,99720.94
2022-10-23T12:56:34.455Z,99722.94
2022-10-23T12:59:02.389Z,99724.59
2022-10-23T13:01:43.553Z,99716.94
2022-10-23T13:04:33.987Z,99709.31
2022-10-23T13:07:13.354Z,99704.50
2022-10-23T13:09:51.540Z,99700.50
2022-10-23T13:12:37.048Z,99717.41
2022-10-23T13:15:16.060Z,99708.59
2022-10-23T13:18:04.866Z,99706.34
2022-10-23T13:21:08.398Z,99691.34
2022-10-23T13:23:36.458Z,99673.88
2022-10-23T13:26:23.647Z,99672.91
2022-10-23T13:28:50.599Z,99673.66
2022-10-23T13:31:18.186Z,99670.59
2022-10-23T13:33:49.053Z,99667.53
2022-10-23T13:36:16.720Z,99663.63
2022-10-23T13:38:44.885Z,99661.63
2022-10-23T13:41:19.029Z,99641.91
2022-10-23T13:43:46.316Z,99643.56
2022-10-23T13:46:20.297Z,99632.47
2022-10-23T13:48:47.171Z,99640.59
2022-10-23T13:51:20.141Z,99640.22
2022-10-23T13:53:47.362Z,99626.84
2022-10-23T13:56:14.856Z,99622.38
2022-10-23T13:58:41.486Z,99626.84
2022-10-23T14:01:16.495Z,99626.03
2022-10-23T14:03:43.199Z,99619.94
2022-10-23T14:06:10.817Z,99626.75
2022-10-23T14:08:37.555Z,99614.31
2022-10-23T14:11:04.135Z,99596.56
2022-10-23T14:13:31.988Z,99590.81
2022-10-23T14:16:04.966Z,99586.00
2022-10-23T14:18:31.589Z,99588.47
2022-10-23T14:21:01.752Z,99576.38
2022-10-23T14:23:28.378Z,99588.00
2022-10-23T14:26:07.150Z,99578.75
2022-10-23T14:28:34.144Z,99565.84
2022-10-23T14:31:06.394Z,99567.84
2022-10-23T14:33:33.326Z,99553.28
2022-10-23T14:36:03.708Z,99544.00
2022-10-23T14:38:30.301Z,99531.13
2022-10-23T14:40:56.930Z,99513.38
2022-10-23T14:43:23.994Z,99517.38
2022-10-23T14:45:50.606Z,99513.75
2022-10-23T14:48:17.395Z,99503.63
2022-10-23T14:50:45.829Z,99508.09
2022-10-23T14:53:12.479Z,99515.28
2022-10-23T14:55:39.095Z,99520.94
2022-10-23T14:58:06.077Z,99520.09
2022-10-23T15:00:33.071Z,99520.00
2022-10-23T15:02:59.959Z,99522.44
2022-10-23T15:05:26.634Z,99524.81
2022-10-23T15:07:54.921Z,99520.81
2022-10-23T15:10:21.670Z,99516.38
2022-10-23T15:12:48.836Z,99505.09
2022-10-23T15:15:15.425Z,99502.28
2022-10-23T15:17:42.545Z,99491.84
2022-10-23T15:20:09.449Z,99493.34
2022-10-23T15:22:36.097Z,99509.44
2022-10-23T15:25:02.794Z,99497.34
2022-10-23T15:27:29.369Z,99483.66
2022-10-23T15:29:55.939Z,99484.81
2022-10-23T15:32:22.631Z,99480.34
2022-10-23T15:34:49.862Z,99481.19
2022-10-23T15:37:16.470Z,99479.91
2022-10-23T15:39:43.319Z,99470.66
2022-10-23T15:42:10.258Z,99469.00
2022-10-23T15:44:37.313Z,99457.72
2022-10-23T15:47:03.970Z,99462.06
2022-10-23T15:49:30.788Z,99456.81
2022-10-23T15:51:57.600Z,99450.38
2022-10-23T15:54:26.946Z,99448.72
2022-10-23T15:56:56.028Z,99438.63
2022-10-23T15:59:24.386Z,99432.19
2022-10-23T16:01:51.620Z,99428.09
2022-10-23T16:04:18.651Z,99411.56
2022-10-23T16:06:45.440Z,99406.31
2022-10-23T16:09:12.046Z,99411.47
2022-10-23T16:11:39.779Z,99418.25
2022-10-23T16:14:07.001Z,99427.91
2022-10-23T16:16:33.922Z,99522.00
2022-10-23T16:19:03.828Z,99598.03
2022-10-23T16:21:31.686Z,99588.25
2022-10-23T16:24:00.072Z,99591.78
2022-10-23T16:26:27.617Z,99593.78
2022-10-23T16:28:55.333Z,99583.25
2022-10-23T16:31:23.466Z,99574.31
2022-10-23T16:33:50.771Z,99577.50
2022-10-23T16:36:17.770Z,99572.56
2022-10-23T16:38:44.373Z,99565.28
2022-10-23T16:41:10.991Z,99556.41
2022-10-23T16:43:37.723Z,99536.22
2022-10-23T16:46:23.354Z,99504.81
2022-10-23T16:48:53.444Z,99475.84
2022-10-23T16:51:21.526Z,99429.16
2022-10-23T16:53:48.493Z,99411.84
2022-10-23T16:56:16.077Z,99417.81
2022-10-23T16:58:43.471Z,99440.31
2022-10-23T17:01:18.103Z,99453.09
2022-10-23T17:03:48.285Z,99467.53
2022-10-23T17:06:17.489Z,99464.25
2022-10-23T17:08:56.488Z,99468.25
2022-10-23T17:11:42.486Z,99483.50
2022-10-23T17:14:30.608Z,99484.69
2022-10-23T17:17:26.535Z,99497.94
2022-10-23T17:20:15.960Z,99509.19
2022-10-23T17:22:42.610Z,99514.00
2022-10-23T17:25:28.969Z,99519.63
2022-10-23T17:28:12.500Z,99519.63
2022-10-23T17:30:56.497Z,99525.72
2022-10-23T17:33:24.460Z,99530.16
2022-10-23T17:35:59.025Z,99525.00
2022-10-23T17:38:34.532Z,99527.47
2022-10-23T17:41:33.448Z,99525.09
2022-10-23T17:44:06.325Z,99532.38
2022-10-23T17:46:45.551Z,99523.59
2022-10-23T17:49:31.267Z,99524.41
2022-10-23T17:52:23.959Z,99535.28
2022-10-23T17:55:07.788Z,99531.31
2022-10-23T17:57:47.584Z,99528.50
2022-10-23T18:00:19.956Z,99532.59
2022-10-23T18:02:56.855Z,99524.13
2022-10-23T18:05:44.794Z,99519.31
2022-10-23T18:08:11.527Z,99527.44
2022-10-23T18:10:54.422Z,99517.00
2022-10-23T18:13:32.417Z,99512.19
2022-10-23T18:16:12.285Z,99511.00
2022-10-23T18:18:43.775Z,99500.53
2022-10-23T18:21:24.617Z,99490.59
2022-10-23T18:24:12.010Z,99482.50
2022-10-23T18:26:57.042Z,99482.13
2022-10-23T18:29:39.678Z,99485.78
2022-10-23T18:32:23.980Z,99478.97
2022-10-23T18:35:02.047Z,99487.41
2022-10-23T18:37:41.804Z,99491.84
2022-10-23T18:40:15.695Z,99489.84
2022-10-23T18:42:53.692Z,99489.84
2022-10-23T18:45:39.774Z,99490.69
2022-10-23T18:48:23.406Z,99492.31
2022-10-23T18:51:10.333Z,99487.53
2022-10-23T18:54:02.139Z,99481.06
2022-10-23T18:56:48.512Z,99479.50
2022-10-23T18:59:27.887Z,99482.34
2022-10-23T19:02:12.917Z,99489.94
2022-10-23T19:04:39.584Z,99475.88
2022-10-23T19:07:13.237Z,99474.72
2022-10-23T19:09:54.551Z,99469.06
2022-10-23T19:12:37.079Z,99469.91
2022-10-23T19:15:28.072Z,99475.53
2022-10-23T19:18:17.171Z,99475.53
2022-10-23T19:21:03.164Z,99477.53
2022-10-23T19:23:46.769Z,99468.63
2022-10-23T19:26:13.749Z,99459.38
2022-10-23T19:28:42.992Z,99456.91
2022-10-23T19:31:10.256Z,99456.06
2022-10-23T19:33:38.698Z,99454.09
2022-10-23T19:36:07.906Z,99452.91
2022-10-23T19:38:36.741Z,99449.38
2022-10-23T19:41:04.065Z,99452.66
2022-10-23T19:43:44.552Z,99453.94
2022-10-23T19:46:31.351Z,99452.44
2022-10-23T19:49:21.817Z,99449.25
2022-10-23T19:51:55.813Z,99449.72
2022-10-23T19:54:22.582Z,99447.34
2022-10-23T19:57:06.366Z,99435.72
2022-10-23T19:59:56.428Z,99438.19
2022-10-23T20:05:17.559Z,99419.75
2022-10-23T20:08:02.099Z,99426.19
2022-10-23T20:10:50.937Z,99427.47
2022-10-23T20:13:36.428Z,99429.09
2022-10-23T20:19:06.930Z,99429.56
2022-10-23T20:21:58.387Z,99418.75
2022-10-23T20:24:25.085Z,99407.13
2022-10-23T20:27:07.423Z,99412.75
2022-10-23T20:29:50.526Z,99407.94
2022-10-23T20:32:17.274Z,99394.22
2022-10-23T20:34:44.306Z,99392.69
2022-10-23T20:37:11.422Z,99397.50
2022-10-23T20:39:43.181Z,99393.88
2022-10-23T20:42:10.111Z,99398.31
2022-10-23T20:44:36.804Z,99394.34
2022-10-23T20:47:03.522Z,99396.69
2022-10-23T20:49:30.433Z,99370.50
2022-10-23T20:51:57.291Z,99358.06
2022-10-23T20:54:24.719Z,99340.34
2022-10-23T20:56:51.365Z,99327.53
2022-10-23T20:59:19.137Z,99311.00
2022-10-23T21:01:49.721Z,99321.09
2022-10-23T21:04:17.591Z,99325.53
2022-10-23T21:07:08.322Z,99325.53
2022-10-23T21:09:31.014Z,99338.44
2022-10-23T21:11:57.658Z,99375.88
2022-10-23T21:14:24.297Z,99368.25
2022-10-23T21:16:50.878Z,99378.69
2022-10-23T21:19:17.733Z,99374.31
2022-10-23T21:21:44.389Z,99346.16
2022-10-23T21:24:13.676Z,99342.53
2022-10-23T21:26:40.296Z,99353.00
2022-10-23T21:29:18.048Z,99340.91
2022-10-23T21:31:45.685Z,99357.81
2022-10-23T21:34:12.550Z,99346.88
2022-10-23T21:36:48.503Z,99346.88
2022-10-23T21:39:25.966Z,99348.88
2022-10-23T21:41:52.493Z,99345.25
2022-10-23T21:44:19.134Z,99349.25
2022-10-23T21:46:45.931Z,99347.63
2022-10-23T21:49:12.950Z,99344.81
2022-10-23T21:51:39.613Z,99351.63
2022-10-23T21:54:06.984Z,99337.88
2022-10-23T21:56:42.113Z,99336.72
2022-10-23T21:59:13.509Z,99328.63
2022-10-23T22:01:41.403Z,99336.28
2022-10-23T22:04:08.189Z,99333.47
2022-10-23T22:06:34.939Z,99338.28
2022-10-23T22:09:01.575Z,99336.63
2022-10-23T22:11:28.698Z,99340.25
2022-10-23T22:13:55.712Z,99332.53
2022-10-23T22:16:23.192Z,99319.25
2022-10-23T22:18:49.898Z,99319.66
2022-10-23T22:21:18.522Z,99318.00
2022-10-23T22:23:45.718Z,99318.34
2022-10-23T22:26:19.333Z,99308.28
2022-10-23T22:28:45.884Z,99310.66
2022-10-23T22:31:16.551Z,99304.69
2022-10-23T22:33:43.301Z,99303.44
2022-10-23T22:36:16.118Z,99286.09
2022-10-23T22:38:42.788Z,99292.88
2022-10-23T22:41:09.491Z,99287.25
2022-10-23T22:43:36.235Z,99304.16
2022-10-23T22:46:13.391Z,99302.16
2022-10-23T22:48:40.197Z,99304.97
2022-10-23T22:51:08.963Z,99290.81
2022-10-23T22:53:35.927Z,99288.34
2022-10-23T22:56:06.558Z,99304.06
2022-10-23T22:58:33.486Z,99295.25
2022-10-23T23:01:05.058Z,99294.44
2022-10-23T23:03:31.959Z,99283.19
2022-10-23T23:06:02.516Z,99282.34
2022-10-23T23:08:29.290Z,99261.00
2022-10-23T23:10:56.701Z,99252.22
2022-10-23T23:13:24.747Z,99263.13
2022-10-23T23:15:51.535Z,99255.50
2022-10-23T23:18:18.486Z,99256.28
2022-10-23T23:20:45.365Z,99252.28
2022-10-23T23:23:14.260Z,99245.03
2022-10-23T23:25:45.211Z,99243.84
2022-10-23T23:28:12.507Z,99248.66
2022-10-23T23:30:39.896Z,99243.03
2022-10-23T23:33:07.218Z,99237.78
2022-10-23T23:35:33.829Z,99234.97
2022-10-23T23:38:00.603Z,99227.34
2022-10-23T23:40:27.183Z,99225.72
2022-10-23T23:42:54.053Z,99217.69
2022-10-23T23:45:20.685Z,99214.44
2022-10-23T23:47:47.431Z,99209.63
2022-10-23T23:50:14.547Z,99209.63
2022-10-23T23:52:41.155Z,99206.00
2022-10-23T23:55:07.945Z,99200.72
2022-10-23T23:57:34.527Z,99179.38
